sensor_id;sensor_type;location;lat;lon;timestamp;P1;durP1;ratioP1;P2;durP2;ratioP2
46322;SDS011;32044;52.386;13.278;2023-04-16T00:02:29;74.53;;;43.60;;
46322;SDS011;32044;52.386;13.278;2023-04-16T00:04:56;78.13;;;40.47;;
46322;SDS011;32044;52.386;13.278;2023-04-16T00:07:24;137.68;;;52.22;;
46322;SDS011;32044;52.386;13.278;2023-04-16T00:09:52;100.13;;;46.10;;
46322;SDS011;32044;52.386;13.278;2023-04-16T00:12:19;124.05;;;50.35;;
46322;SDS011;32044;52.386;13.278;2023-04-16T00:14:46;104.78;;;46.17;;
46322;SDS011;32044;52.386;13.278;2023-04-16T00:17:15;90.60;;;45.72;;
46322;SDS011;32044;52.386;13.278;2023-04-16T00:19:43;78.78;;;41.20;;
46322;SDS011;32044;52.386;13.278;2023-04-16T00:22:11;80.25;;;41.25;;
46322;SDS011;32044;52.386;13.278;2023-04-16T00:24:38;125.63;;;52.33;;
46322;SDS011;32044;52.386;13.278;2023-04-16T00:27:06;94.40;;;47.70;;
46322;SDS011;32044;52.386;13.278;2023-04-16T00:29:34;94.43;;;46.00;;
46322;SDS011;32044;52.386;13.278;2023-04-16T00:32:01;157.48;;;56.00;;
46322;SDS011;32044;52.386;13.278;2023-04-16T00:34:30;113.13;;;50.25;;
46322;SDS011;32044;52.386;13.278;2023-04-16T00:36:58;91.75;;;45.85;;
46322;SDS011;32044;52.386;13.278;2023-04-16T00:39:25;98.93;;;45.88;;
46322;SDS011;32044;52.386;13.278;2023-04-16T00:41:53;114.82;;;49.17;;
46322;SDS011;32044;52.386;13.278;2023-04-16T00:44:20;83.05;;;42.17;;
46322;SDS011;32044;52.386;13.278;2023-04-16T00:46:48;123.32;;;53.50;;
46322;SDS011;32044;52.386;13.278;2023-04-16T00:49:15;102.68;;;47.95;;
46322;SDS011;32044;52.386;13.278;2023-04-16T00:51:44;136.35;;;56.72;;
46322;SDS011;32044;52.386;13.278;2023-04-16T00:54:12;103.53;;;46.90;;
46322;SDS011;32044;52.386;13.278;2023-04-16T00:56:40;93.88;;;44.90;;
46322;SDS011;32044;52.386;13.278;2023-04-16T00:59:07;102.68;;;48.15;;
46322;SDS011;32044;52.386;13.278;2023-04-16T01:01:35;130.73;;;54.20;;
46322;SDS011;32044;52.386;13.278;2023-04-16T01:04:03;107.30;;;48.13;;
46322;SDS011;32044;52.386;13.278;2023-04-16T01:06:32;113.53;;;51.45;;
46322;SDS011;32044;52.386;13.278;2023-04-16T01:09:01;98.78;;;48.38;;
46322;SDS011;32044;52.386;13.278;2023-04-16T01:11:29;112.20;;;48.92;;
46322;SDS011;32044;52.386;13.278;2023-04-16T01:13:56;137.35;;;55.97;;
46322;SDS011;32044;52.386;13.278;2023-04-16T01:16:24;92.35;;;44.38;;
46322;SDS011;32044;52.386;13.278;2023-04-16T01:18:52;94.40;;;44.95;;
46322;SDS011;32044;52.386;13.278;2023-04-16T01:21:20;122.43;;;51.95;;
46322;SDS011;32044;52.386;13.278;2023-04-16T01:23:48;99.25;;;49.35;;
46322;SDS011;32044;52.386;13.278;2023-04-16T01:26:16;120.53;;;50.53;;
46322;SDS011;32044;52.386;13.278;2023-04-16T01:28:43;122.03;;;52.22;;
46322;SDS011;32044;52.386;13.278;2023-04-16T01:31:11;90.55;;;46.65;;
46322;SDS011;32044;52.386;13.278;2023-04-16T01:33:39;107.00;;;48.83;;
46322;SDS011;32044;52.386;13.278;2023-04-16T01:36:06;110.00;;;50.25;;
46322;SDS011;32044;52.386;13.278;2023-04-16T01:38:35;101.32;;;45.60;;
46322;SDS011;32044;52.386;13.278;2023-04-16T01:41:03;91.22;;;47.38;;
46322;SDS011;32044;52.386;13.278;2023-04-16T01:43:30;120.03;;;50.67;;
46322;SDS011;32044;52.386;13.278;2023-04-16T01:45:58;91.32;;;45.75;;
46322;SDS011;32044;52.386;13.278;2023-04-16T01:48:37;140.88;;;55.00;;
46322;SDS011;32044;52.386;13.278;2023-04-16T01:51:05;97.15;;;48.95;;
46322;SDS011;32044;52.386;13.278;2023-04-16T01:53:32;91.35;;;46.25;;
46322;SDS011;32044;52.386;13.278;2023-04-16T01:56:04;151.82;;;58.50;;
46322;SDS011;32044;52.386;13.278;2023-04-16T01:58:32;135.30;;;55.65;;
46322;SDS011;32044;52.386;13.278;2023-04-16T02:01:00;154.95;;;59.33;;
46322;SDS011;32044;52.386;13.278;2023-04-16T02:03:27;117.00;;;53.40;;
46322;SDS011;32044;52.386;13.278;2023-04-16T02:05:55;167.23;;;60.53;;
46322;SDS011;32044;52.386;13.278;2023-04-16T02:08:23;130.23;;;54.85;;
46322;SDS011;32044;52.386;13.278;2023-04-16T02:10:51;87.55;;;44.38;;
46322;SDS011;32044;52.386;13.278;2023-04-16T02:13:19;142.50;;;55.75;;
46322;SDS011;32044;52.386;13.278;2023-04-16T02:15:48;139.10;;;54.03;;
46322;SDS011;32044;52.386;13.278;2023-04-16T02:18:16;159.00;;;59.70;;
46322;SDS011;32044;52.386;13.278;2023-04-16T02:20:44;101.05;;;49.85;;
46322;SDS011;32044;52.386;13.278;2023-04-16T02:23:13;106.63;;;50.58;;
46322;SDS011;32044;52.386;13.278;2023-04-16T02:25:41;116.97;;;52.85;;
46322;SDS011;32044;52.386;13.278;2023-04-16T02:28:09;166.73;;;62.47;;
46322;SDS011;32044;52.386;13.278;2023-04-16T02:30:39;127.28;;;55.38;;
46322;SDS011;32044;52.386;13.278;2023-04-16T02:33:08;105.07;;;48.47;;
46322;SDS011;32044;52.386;13.278;2023-04-16T02:35:36;161.05;;;59.85;;
46322;SDS011;32044;52.386;13.278;2023-04-16T02:38:04;103.45;;;50.30;;
46322;SDS011;32044;52.386;13.278;2023-04-16T02:40:32;114.70;;;49.08;;
46322;SDS011;32044;52.386;13.278;2023-04-16T02:43:00;169.43;;;59.20;;
46322;SDS011;32044;52.386;13.278;2023-04-16T02:45:27;215.95;;;65.82;;
46322;SDS011;32044;52.386;13.278;2023-04-16T02:47:58;154.70;;;60.10;;
46322;SDS011;32044;52.386;13.278;2023-04-16T02:50:26;143.50;;;53.92;;
46322;SDS011;32044;52.386;13.278;2023-04-16T02:52:53;159.15;;;60.30;;
46322;SDS011;32044;52.386;13.278;2023-04-16T02:55:21;151.52;;;58.35;;
46322;SDS011;32044;52.386;13.278;2023-04-16T02:57:48;126.68;;;55.33;;
46322;SDS011;32044;52.386;13.278;2023-04-16T03:00:18;113.70;;;52.63;;
46322;SDS011;32044;52.386;13.278;2023-04-16T03:02:45;139.27;;;54.35;;
46322;SDS011;32044;52.386;13.278;2023-04-16T03:05:14;177.68;;;62.13;;
46322;SDS011;32044;52.386;13.278;2023-04-16T03:07:42;118.30;;;53.88;;
46322;SDS011;32044;52.386;13.278;2023-04-16T03:10:10;151.57;;;58.80;;
46322;SDS011;32044;52.386;13.278;2023-04-16T03:12:38;167.90;;;60.03;;
46322;SDS011;32044;52.386;13.278;2023-04-16T03:15:06;161.38;;;59.22;;
46322;SDS011;32044;52.386;13.278;2023-04-16T03:17:34;114.10;;;51.55;;
46322;SDS011;32044;52.386;13.278;2023-04-16T03:20:02;131.90;;;55.70;;
46322;SDS011;32044;52.386;13.278;2023-04-16T03:22:31;179.93;;;60.28;;
46322;SDS011;32044;52.386;13.278;2023-04-16T03:24:59;148.63;;;57.88;;
46322;SDS011;32044;52.386;13.278;2023-04-16T03:27:26;176.73;;;60.95;;
46322;SDS011;32044;52.386;13.278;2023-04-16T03:29:54;112.95;;;53.80;;
46322;SDS011;32044;52.386;13.278;2023-04-16T03:32:22;121.90;;;54.42;;
46322;SDS011;32044;52.386;13.278;2023-04-16T03:34:49;175.32;;;62.08;;
46322;SDS011;32044;52.386;13.278;2023-04-16T03:37:17;156.30;;;61.08;;
46322;SDS011;32044;52.386;13.278;2023-04-16T03:39:46;153.10;;;60.75;;
46322;SDS011;32044;52.386;13.278;2023-04-16T03:42:13;194.93;;;68.35;;
46322;SDS011;32044;52.386;13.278;2023-04-16T03:44:41;252.55;;;75.13;;
46322;SDS011;32044;52.386;13.278;2023-04-16T03:47:08;180.52;;;69.47;;
46322;SDS011;32044;52.386;13.278;2023-04-16T03:49:36;226.18;;;74.00;;
46322;SDS011;32044;52.386;13.278;2023-04-16T03:52:04;157.88;;;60.53;;
46322;SDS011;32044;52.386;13.278;2023-04-16T03:54:31;147.05;;;62.38;;
46322;SDS011;32044;52.386;13.278;2023-04-16T03:57:00;131.73;;;59.08;;
46322;SDS011;32044;52.386;13.278;2023-04-16T03:59:28;190.95;;;65.88;;
46322;SDS011;32044;52.386;13.278;2023-04-16T04:01:55;144.00;;;58.97;;
46322;SDS011;32044;52.386;13.278;2023-04-16T04:04:23;228.20;;;74.65;;
46322;SDS011;32044;52.386;13.278;2023-04-16T04:06:51;167.77;;;60.90;;
46322;SDS011;32044;52.386;13.278;2023-04-16T04:09:18;224.38;;;70.70;;
46322;SDS011;32044;52.386;13.278;2023-04-16T04:11:46;256.90;;;78.25;;
46322;SDS011;32044;52.386;13.278;2023-04-16T04:14:15;241.98;;;75.00;;
46322;SDS011;32044;52.386;13.278;2023-04-16T04:16:42;225.80;;;74.22;;
46322;SDS011;32044;52.386;13.278;2023-04-16T04:19:10;209.93;;;70.72;;
46322;SDS011;32044;52.386;13.278;2023-04-16T04:21:37;265.83;;;80.47;;
46322;SDS011;32044;52.386;13.278;2023-04-16T04:24:05;181.43;;;67.82;;
46322;SDS011;32044;52.386;13.278;2023-04-16T04:26:33;192.70;;;63.95;;
46322;SDS011;32044;52.386;13.278;2023-04-16T04:29:00;188.18;;;65.88;;
46322;SDS011;32044;52.386;13.278;2023-04-16T04:31:29;255.95;;;75.43;;
46322;SDS011;32044;52.386;13.278;2023-04-16T04:33:57;198.30;;;70.40;;
46322;SDS011;32044;52.386;13.278;2023-04-16T04:36:24;236.10;;;72.97;;
46322;SDS011;32044;52.386;13.278;2023-04-16T04:38:52;212.23;;;66.45;;
46322;SDS011;32044;52.386;13.278;2023-04-16T04:41:20;158.05;;;61.05;;
46322;SDS011;32044;52.386;13.278;2023-04-16T04:43:47;207.18;;;66.60;;
46322;SDS011;32044;52.386;13.278;2023-04-16T04:46:15;167.98;;;60.63;;
46322;SDS011;32044;52.386;13.278;2023-04-16T04:48:44;162.23;;;61.58;;
46322;SDS011;32044;52.386;13.278;2023-04-16T04:51:11;143.20;;;59.50;;
46322;SDS011;32044;52.386;13.278;2023-04-16T04:53:39;147.23;;;58.55;;
46322;SDS011;32044;52.386;13.278;2023-04-16T04:56:06;204.55;;;66.35;;
46322;SDS011;32044;52.386;13.278;2023-04-16T05:01:05;160.85;;;60.08;;
46322;SDS011;32044;52.386;13.278;2023-04-16T05:03:33;211.93;;;67.47;;
46322;SDS011;32044;52.386;13.278;2023-04-16T05:06:02;174.57;;;59.10;;
46322;SDS011;32044;52.386;13.278;2023-04-16T05:08:30;188.52;;;65.68;;
46322;SDS011;32044;52.386;13.278;2023-04-16T05:10:58;181.50;;;64.50;;
46322;SDS011;32044;52.386;13.278;2023-04-16T05:13:26;180.95;;;64.22;;
46322;SDS011;32044;52.386;13.278;2023-04-16T05:15:53;251.07;;;72.55;;
46322;SDS011;32044;52.386;13.278;2023-04-16T05:18:21;199.35;;;66.53;;
46322;SDS011;32044;52.386;13.278;2023-04-16T05:20:48;203.23;;;67.80;;
46322;SDS011;32044;52.386;13.278;2023-04-16T05:23:17;198.82;;;64.20;;
46322;SDS011;32044;52.386;13.278;2023-04-16T05:25:45;286.25;;;73.38;;
46322;SDS011;32044;52.386;13.278;2023-04-16T05:28:12;248.00;;;71.22;;
46322;SDS011;32044;52.386;13.278;2023-04-16T05:30:40;201.25;;;65.57;;
46322;SDS011;32044;52.386;13.278;2023-04-16T05:33:08;256.85;;;73.25;;
46322;SDS011;32044;52.386;13.278;2023-04-16T05:35:35;235.65;;;69.32;;
46322;SDS011;32044;52.386;13.278;2023-04-16T05:38:03;249.75;;;72.20;;
46322;SDS011;32044;52.386;13.278;2023-04-16T05:40:31;219.43;;;66.70;;
46322;SDS011;32044;52.386;13.278;2023-04-16T05:42:59;184.05;;;62.47;;
46322;SDS011;32044;52.386;13.278;2023-04-16T05:45:26;172.50;;;61.08;;
46322;SDS011;32044;52.386;13.278;2023-04-16T05:47:54;183.93;;;64.57;;
46322;SDS011;32044;52.386;13.278;2023-04-16T05:50:22;133.25;;;57.10;;
46322;SDS011;32044;52.386;13.278;2023-04-16T05:52:49;199.75;;;63.92;;
46322;SDS011;32044;52.386;13.278;2023-04-16T05:55:17;256.75;;;71.18;;
46322;SDS011;32044;52.386;13.278;2023-04-16T05:57:45;136.93;;;55.45;;
46322;SDS011;32044;52.386;13.278;2023-04-16T06:00:13;212.88;;;65.80;;
46322;SDS011;32044;52.386;13.278;2023-04-16T06:02:41;225.38;;;65.95;;
46322;SDS011;32044;52.386;13.278;2023-04-16T06:05:09;251.70;;;69.45;;
46322;SDS011;32044;52.386;13.278;2023-04-16T06:07:36;167.45;;;61.15;;
46322;SDS011;32044;52.386;13.278;2023-04-16T06:10:04;153.48;;;59.42;;
46322;SDS011;32044;52.386;13.278;2023-04-16T06:12:32;238.55;;;66.43;;
46322;SDS011;32044;52.386;13.278;2023-04-16T06:15:01;263.55;;;70.35;;
46322;SDS011;32044;52.386;13.278;2023-04-16T06:17:29;153.02;;;55.53;;
46322;SDS011;32044;52.386;13.278;2023-04-16T06:19:56;170.32;;;59.22;;
46322;SDS011;32044;52.386;13.278;2023-04-16T06:22:24;131.13;;;54.80;;
46322;SDS011;32044;52.386;13.278;2023-04-16T06:24:52;161.68;;;58.10;;
46322;SDS011;32044;52.386;13.278;2023-04-16T06:27:19;120.28;;;53.10;;
46322;SDS011;32044;52.386;13.278;2023-04-16T06:29:47;135.80;;;53.20;;
46322;SDS011;32044;52.386;13.278;2023-04-16T06:32:16;104.65;;;47.85;;
46322;SDS011;32044;52.386;13.278;2023-04-16T06:34:43;119.72;;;49.72;;
46322;SDS011;32044;52.386;13.278;2023-04-16T06:37:11;126.75;;;50.53;;
46322;SDS011;32044;52.386;13.278;2023-04-16T06:39:38;113.10;;;48.72;;
46322;SDS011;32044;52.386;13.278;2023-04-16T06:42:06;189.50;;;58.00;;
46322;SDS011;32044;52.386;13.278;2023-04-16T06:44:34;150.82;;;51.45;;
46322;SDS011;32044;52.386;13.278;2023-04-16T06:47:01;130.20;;;50.25;;
46322;SDS011;32044;52.386;13.278;2023-04-16T06:49:30;112.43;;;45.83;;
46322;SDS011;32044;52.386;13.278;2023-04-16T06:51:58;90.35;;;42.67;;
46322;SDS011;32044;52.386;13.278;2023-04-16T06:54:25;101.60;;;44.53;;
46322;SDS011;32044;52.386;13.278;2023-04-16T06:56:53;93.18;;;42.55;;
46322;SDS011;32044;52.386;13.278;2023-04-16T06:59:20;104.43;;;45.17;;
46322;SDS011;32044;52.386;13.278;2023-04-16T07:01:48;84.53;;;40.05;;
46322;SDS011;32044;52.386;13.278;2023-04-16T07:04:16;106.97;;;44.35;;
46322;SDS011;32044;52.386;13.278;2023-04-16T07:06:45;102.40;;;44.60;;
46322;SDS011;32044;52.386;13.278;2023-04-16T07:09:12;112.53;;;44.42;;
46322;SDS011;32044;52.386;13.278;2023-04-16T07:11:40;81.30;;;40.20;;
46322;SDS011;32044;52.386;13.278;2023-04-16T07:14:17;88.10;;;40.50;;
46322;SDS011;32044;52.386;13.278;2023-04-16T07:16:44;112.75;;;44.60;;
46322;SDS011;32044;52.386;13.278;2023-04-16T07:19:12;117.10;;;45.67;;
46322;SDS011;32044;52.386;13.278;2023-04-16T07:21:39;88.63;;;42.22;;
46322;SDS011;32044;52.386;13.278;2023-04-16T07:24:10;80.20;;;40.45;;
46322;SDS011;32044;52.386;13.278;2023-04-16T07:26:37;109.82;;;46.38;;
46322;SDS011;32044;52.386;13.278;2023-04-16T07:29:05;98.95;;;43.63;;
46322;SDS011;32044;52.386;13.278;2023-04-16T07:31:33;79.72;;;40.10;;
46322;SDS011;32044;52.386;13.278;2023-04-16T07:34:01;90.63;;;42.47;;
46322;SDS011;32044;52.386;13.278;2023-04-16T07:36:28;76.43;;;39.17;;
46322;SDS011;32044;52.386;13.278;2023-04-16T07:38:57;77.03;;;40.25;;
46322;SDS011;32044;52.386;13.278;2023-04-16T07:41:25;90.90;;;41.45;;
46322;SDS011;32044;52.386;13.278;2023-04-16T07:43:54;113.63;;;48.80;;
46322;SDS011;32044;52.386;13.278;2023-04-16T07:46:22;102.22;;;45.85;;
46322;SDS011;32044;52.386;13.278;2023-04-16T07:48:51;105.40;;;45.75;;
46322;SDS011;32044;52.386;13.278;2023-04-16T07:51:19;76.20;;;39.67;;
46322;SDS011;32044;52.386;13.278;2023-04-16T07:53:46;96.15;;;44.17;;
46322;SDS011;32044;52.386;13.278;2023-04-16T07:56:14;98.43;;;43.15;;
46322;SDS011;32044;52.386;13.278;2023-04-16T07:58:42;99.20;;;44.55;;
46322;SDS011;32044;52.386;13.278;2023-04-16T08:01:10;83.22;;;42.10;;
46322;SDS011;32044;52.386;13.278;2023-04-16T08:03:37;90.68;;;42.55;;
46322;SDS011;32044;52.386;13.278;2023-04-16T08:06:05;95.47;;;43.92;;
46322;SDS011;32044;52.386;13.278;2023-04-16T08:08:33;93.28;;;45.50;;
46322;SDS011;32044;52.386;13.278;2023-04-16T08:11:00;107.22;;;43.25;;
46322;SDS011;32044;52.386;13.278;2023-04-16T08:13:28;105.90;;;44.63;;
46322;SDS011;32044;52.386;13.278;2023-04-16T08:15:59;84.97;;;41.42;;
46322;SDS011;32044;52.386;13.278;2023-04-16T08:18:27;91.28;;;42.40;;
46322;SDS011;32044;52.386;13.278;2023-04-16T08:20:55;82.97;;;40.85;;
46322;SDS011;32044;52.386;13.278;2023-04-16T08:23:23;110.60;;;45.85;;
46322;SDS011;32044;52.386;13.278;2023-04-16T08:25:50;106.50;;;44.80;;
46322;SDS011;32044;52.386;13.278;2023-04-16T08:28:18;92.60;;;41.55;;
46322;SDS011;32044;52.386;13.278;2023-04-16T08:30:45;89.82;;;41.63;;
46322;SDS011;32044;52.386;13.278;2023-04-16T08:33:14;86.88;;;41.17;;
46322;SDS011;32044;52.386;13.278;2023-04-16T08:35:42;78.97;;;38.35;;
46322;SDS011;32044;52.386;13.278;2023-04-16T08:38:09;77.25;;;37.92;;
46322;SDS011;32044;52.386;13.278;2023-04-16T08:40:37;76.80;;;38.55;;
46322;SDS011;32044;52.386;13.278;2023-04-16T08:43:08;76.80;;;39.00;;
46322;SDS011;32044;52.386;13.278;2023-04-16T08:45:36;70.88;;;35.17;;
46322;SDS011;32044;52.386;13.278;2023-04-16T08:48:04;74.03;;;35.10;;
46322;SDS011;32044;52.386;13.278;2023-04-16T08:50:34;106.60;;;41.22;;
46322;SDS011;32044;52.386;13.278;2023-04-16T08:53:02;93.05;;;40.05;;
46322;SDS011;32044;52.386;13.278;2023-04-16T08:55:35;86.07;;;37.92;;
46322;SDS011;32044;52.386;13.278;2023-04-16T08:58:07;78.85;;;37.40;;
46322;SDS011;32044;52.386;13.278;2023-04-16T09:00:37;63.05;;;34.10;;
46322;SDS011;32044;52.386;13.278;2023-04-16T09:03:06;79.55;;;34.97;;
46322;SDS011;32044;52.386;13.278;2023-04-16T09:05:35;62.25;;;32.58;;
46322;SDS011;32044;52.386;13.278;2023-04-16T09:08:03;66.28;;;34.60;;
46322;SDS011;32044;52.386;13.278;2023-04-16T09:10:32;76.70;;;34.67;;
46322;SDS011;32044;52.386;13.278;2023-04-16T09:13:00;69.22;;;35.33;;
46322;SDS011;32044;52.386;13.278;2023-04-16T09:15:27;65.15;;;32.15;;
46322;SDS011;32044;52.386;13.278;2023-04-16T09:17:55;66.05;;;32.17;;
46322;SDS011;32044;52.386;13.278;2023-04-16T09:20:23;67.80;;;32.38;;
46322;SDS011;32044;52.386;13.278;2023-04-16T09:22:52;77.07;;;33.92;;
46322;SDS011;32044;52.386;13.278;2023-04-16T09:25:22;56.08;;;29.65;;
46322;SDS011;32044;52.386;13.278;2023-04-16T09:27:51;57.88;;;29.20;;
46322;SDS011;32044;52.386;13.278;2023-04-16T09:30:19;64.80;;;30.55;;
46322;SDS011;32044;52.386;13.278;2023-04-16T09:32:48;64.03;;;28.85;;
46322;SDS011;32044;52.386;13.278;2023-04-16T09:35:16;46.42;;;25.30;;
46322;SDS011;32044;52.386;13.278;2023-04-16T09:37:54;58.53;;;29.00;;
46322;SDS011;32044;52.386;13.278;2023-04-16T09:40:23;73.55;;;31.80;;
46322;SDS011;32044;52.386;13.278;2023-04-16T09:42:51;76.18;;;32.42;;
46322;SDS011;32044;52.386;13.278;2023-04-16T09:45:23;50.25;;;27.02;;
46322;SDS011;32044;52.386;13.278;2023-04-16T09:47:50;56.90;;;29.58;;
46322;SDS011;32044;52.386;13.278;2023-04-16T09:50:18;63.75;;;31.02;;
46322;SDS011;32044;52.386;13.278;2023-04-16T09:52:47;70.30;;;32.90;;
46322;SDS011;32044;52.386;13.278;2023-04-16T09:55:16;66.00;;;30.98;;
46322;SDS011;32044;52.386;13.278;2023-04-16T09:57:48;67.45;;;31.40;;
46322;SDS011;32044;52.386;13.278;2023-04-16T10:00:25;59.53;;;30.73;;
46322;SDS011;32044;52.386;13.278;2023-04-16T10:03:01;56.88;;;29.48;;
46322;SDS011;32044;52.386;13.278;2023-04-16T10:05:29;64.50;;;31.08;;
46322;SDS011;32044;52.386;13.278;2023-04-16T10:07:58;53.67;;;28.70;;
46322;SDS011;32044;52.386;13.278;2023-04-16T10:10:28;52.22;;;29.90;;
46322;SDS011;32044;52.386;13.278;2023-04-16T10:12:55;52.35;;;29.58;;
46322;SDS011;32044;52.386;13.278;2023-04-16T10:15:23;44.53;;;27.05;;
46322;SDS011;32044;52.386;13.278;2023-04-16T10:17:51;42.85;;;26.75;;
46322;SDS011;32044;52.386;13.278;2023-04-16T10:20:20;40.58;;;24.67;;
46322;SDS011;32044;52.386;13.278;2023-04-16T10:22:49;49.30;;;29.48;;
46322;SDS011;32044;52.386;13.278;2023-04-16T10:25:16;47.47;;;26.15;;
46322;SDS011;32044;52.386;13.278;2023-04-16T10:27:45;40.72;;;25.48;;
46322;SDS011;32044;52.386;13.278;2023-04-16T10:30:14;47.58;;;28.98;;
46322;SDS011;32044;52.386;13.278;2023-04-16T10:32:41;48.50;;;29.70;;
46322;SDS011;32044;52.386;13.278;2023-04-16T10:35:13;51.45;;;28.35;;
46322;SDS011;32044;52.386;13.278;2023-04-16T10:37:41;48.78;;;27.50;;
46322;SDS011;32044;52.386;13.278;2023-04-16T10:40:23;48.92;;;28.80;;
46322;SDS011;32044;52.386;13.278;2023-04-16T10:42:56;56.28;;;33.00;;
46322;SDS011;32044;52.386;13.278;2023-04-16T10:45:30;56.28;;;30.55;;
46322;SDS011;32044;52.386;13.278;2023-04-16T10:47:58;45.50;;;27.95;;
46322;SDS011;32044;52.386;13.278;2023-04-16T10:50:33;49.47;;;30.98;;
46322;SDS011;32044;52.386;13.278;2023-04-16T10:53:16;53.00;;;31.58;;
46322;SDS011;32044;52.386;13.278;2023-04-16T10:58:42;47.50;;;28.95;;
46322;SDS011;32044;52.386;13.278;2023-04-16T11:01:10;52.85;;;30.25;;
46322;SDS011;32044;52.386;13.278;2023-04-16T11:03:40;45.67;;;28.05;;
46322;SDS011;32044;52.386;13.278;2023-04-16T11:06:09;53.00;;;31.65;;
46322;SDS011;32044;52.386;13.278;2023-04-16T11:08:38;53.22;;;32.92;;
46322;SDS011;32044;52.386;13.278;2023-04-16T11:11:19;50.80;;;30.27;;
46322;SDS011;32044;52.386;13.278;2023-04-16T11:13:48;52.97;;;31.23;;
46322;SDS011;32044;52.386;13.278;2023-04-16T11:16:16;51.70;;;30.73;;
46322;SDS011;32044;52.386;13.278;2023-04-16T11:18:44;50.83;;;30.55;;
46322;SDS011;32044;52.386;13.278;2023-04-16T11:21:17;51.30;;;31.83;;
46322;SDS011;32044;52.386;13.278;2023-04-16T11:23:45;50.55;;;31.65;;
46322;SDS011;32044;52.386;13.278;2023-04-16T11:26:23;65.25;;;33.90;;
46322;SDS011;32044;52.386;13.278;2023-04-16T11:28:54;53.35;;;31.65;;
46322;SDS011;32044;52.386;13.278;2023-04-16T11:31:22;62.42;;;32.75;;
46322;SDS011;32044;52.386;13.278;2023-04-16T11:33:50;54.85;;;32.15;;
46322;SDS011;32044;52.386;13.278;2023-04-16T11:36:17;57.13;;;34.28;;
46322;SDS011;32044;52.386;13.278;2023-04-16T11:38:45;65.47;;;37.00;;
46322;SDS011;32044;52.386;13.278;2023-04-16T11:41:18;62.17;;;34.28;;
46322;SDS011;32044;52.386;13.278;2023-04-16T11:43:47;71.78;;;37.88;;
46322;SDS011;32044;52.386;13.278;2023-04-16T11:46:15;58.05;;;33.60;;
46322;SDS011;32044;52.386;13.278;2023-04-16T11:48:53;55.35;;;33.33;;
46322;SDS011;32044;52.386;13.278;2023-04-16T11:51:21;59.00;;;35.28;;
46322;SDS011;32044;52.386;13.278;2023-04-16T11:53:49;63.58;;;35.03;;
46322;SDS011;32044;52.386;13.278;2023-04-16T11:56:24;57.03;;;34.20;;
46322;SDS011;32044;52.386;13.278;2023-04-16T11:59:06;61.53;;;37.13;;
46322;SDS011;32044;52.386;13.278;2023-04-16T12:01:40;51.90;;;32.35;;
46322;SDS011;32044;52.386;13.278;2023-04-16T12:04:11;53.85;;;33.85;;
46322;SDS011;32044;52.386;13.278;2023-04-16T12:06:40;50.97;;;32.85;;
46322;SDS011;32044;52.386;13.278;2023-04-16T12:11:52;52.63;;;32.83;;
46322;SDS011;32044;52.386;13.278;2023-04-16T12:14:21;44.53;;;30.13;;
46322;SDS011;32044;52.386;13.278;2023-04-16T12:16:50;39.78;;;28.10;;
46322;SDS011;32044;52.386;13.278;2023-04-16T12:19:19;40.20;;;28.30;;
46322;SDS011;32044;52.386;13.278;2023-04-16T12:21:47;38.17;;;26.60;;
46322;SDS011;32044;52.386;13.278;2023-04-16T12:24:16;33.75;;;23.40;;
46322;SDS011;32044;52.386;13.278;2023-04-16T12:26:50;39.17;;;26.98;;
46322;SDS011;32044;52.386;13.278;2023-04-16T12:29:21;39.65;;;27.50;;
46322;SDS011;32044;52.386;13.278;2023-04-16T12:31:51;37.20;;;24.80;;
46322;SDS011;32044;52.386;13.278;2023-04-16T12:34:20;32.55;;;25.50;;
46322;SDS011;32044;52.386;13.278;2023-04-16T12:37:07;36.35;;;25.15;;
46322;SDS011;32044;52.386;13.278;2023-04-16T12:39:35;38.08;;;26.48;;
46322;SDS011;32044;52.386;13.278;2023-04-16T12:42:03;32.40;;;23.88;;
46322;SDS011;32044;52.386;13.278;2023-04-16T12:44:35;31.83;;;22.95;;
46322;SDS011;32044;52.386;13.278;2023-04-16T12:47:03;35.28;;;23.25;;
46322;SDS011;32044;52.386;13.278;2023-04-16T12:49:31;33.03;;;22.77;;
46322;SDS011;32044;52.386;13.278;2023-04-16T12:51:59;33.55;;;24.65;;
46322;SDS011;32044;52.386;13.278;2023-04-16T12:54:26;34.45;;;25.50;;
46322;SDS011;32044;52.386;13.278;2023-04-16T12:56:56;35.47;;;24.48;;
46322;SDS011;32044;52.386;13.278;2023-04-16T12:59:23;34.85;;;23.20;;
46322;SDS011;32044;52.386;13.278;2023-04-16T13:01:51;32.83;;;24.50;;
46322;SDS011;32044;52.386;13.278;2023-04-16T13:04:20;32.25;;;22.58;;
46322;SDS011;32044;52.386;13.278;2023-04-16T13:06:51;30.67;;;22.85;;
46322;SDS011;32044;52.386;13.278;2023-04-16T13:09:18;33.55;;;22.65;;
46322;SDS011;32044;52.386;13.278;2023-04-16T13:11:46;31.13;;;22.92;;
46322;SDS011;32044;52.386;13.278;2023-04-16T13:14:13;33.67;;;23.02;;
46322;SDS011;32044;52.386;13.278;2023-04-16T13:16:41;31.20;;;22.00;;
46322;SDS011;32044;52.386;13.278;2023-04-16T13:19:08;26.92;;;20.60;;
46322;SDS011;32044;52.386;13.278;2023-04-16T13:21:38;24.58;;;19.63;;
46322;SDS011;32044;52.386;13.278;2023-04-16T13:24:05;22.13;;;16.83;;
46322;SDS011;32044;52.386;13.278;2023-04-16T13:26:33;22.15;;;16.60;;
46322;SDS011;32044;52.386;13.278;2023-04-16T13:29:00;21.05;;;16.67;;
46322;SDS011;32044;52.386;13.278;2023-04-16T13:31:28;19.85;;;15.82;;
46322;SDS011;32044;52.386;13.278;2023-04-16T13:33:56;20.35;;;15.85;;
46322;SDS011;32044;52.386;13.278;2023-04-16T13:36:23;19.42;;;16.20;;
46322;SDS011;32044;52.386;13.278;2023-04-16T13:38:54;22.23;;;16.38;;
46322;SDS011;32044;52.386;13.278;2023-04-16T13:41:21;19.65;;;15.38;;
46322;SDS011;32044;52.386;13.278;2023-04-16T13:43:49;23.02;;;17.50;;
46322;SDS011;32044;52.386;13.278;2023-04-16T13:46:16;24.67;;;19.00;;
46322;SDS011;32044;52.386;13.278;2023-04-16T13:48:45;23.00;;;18.25;;
46322;SDS011;32044;52.386;13.278;2023-04-16T13:51:12;23.77;;;18.73;;
46322;SDS011;32044;52.386;13.278;2023-04-16T13:53:40;25.52;;;18.95;;
46322;SDS011;32044;52.386;13.278;2023-04-16T13:56:09;27.92;;;19.27;;
46322;SDS011;32044;52.386;13.278;2023-04-16T13:58:37;26.95;;;19.17;;
46322;SDS011;32044;52.386;13.278;2023-04-16T14:01:05;24.17;;;18.50;;
46322;SDS011;32044;52.386;13.278;2023-04-16T14:03:32;26.05;;;18.10;;
46322;SDS011;32044;52.386;13.278;2023-04-16T14:06:03;23.52;;;18.00;;
46322;SDS011;32044;52.386;13.278;2023-04-16T14:08:30;21.92;;;17.27;;
46322;SDS011;32044;52.386;13.278;2023-04-16T14:10:58;21.73;;;17.73;;
46322;SDS011;32044;52.386;13.278;2023-04-16T14:13:28;22.92;;;17.10;;
46322;SDS011;32044;52.386;13.278;2023-04-16T14:15:56;20.45;;;17.02;;
46322;SDS011;32044;52.386;13.278;2023-04-16T14:18:23;26.33;;;17.70;;
46322;SDS011;32044;52.386;13.278;2023-04-16T14:20:51;23.75;;;17.48;;